Detall de PIREP

Printer-friendly versionPDF version

[2014/10/06 08:18:00]
Flight IATA:CT3228
Pilot Number:042
Company ICAO:CAT
Aircraft Type:A320/E
PAX:96
Departing Airport: LEPA
Destination Airport: LMML
Alternate Airport:DTTA
Online: VATSIM
Route:OSGAL UN859 GENIO UM134 ANB UA411 MORJA UM978 GZO
Flight Level:F330
No Slew and time accel
No pause
Crash detect
Detect pilot in Cockpit between each 30 and 45 minutes
08:18 Zero fuel Weight: 124282 Lbs, Fuel Weight: 42023 Lbs
08:18 VATSIM:LEPA 060700Z 00000KT 9999 FEW026 17/17 Q1014 NOSIG
08:18 VATSIM:LMML 060645Z 32006KT 9999 FEW020 22/19 Q1013 NOSIG
08:19 Parking Brakes off
08:26 Take-off
08:26 Take off Weight: 165033 Lbs
08:26 Wind: 194º @ 000 Knots Heading: 238º
08:26 POS N39º 32´ 56´´ E002º 42´ 52´´
08:26 Gear Up: 151 Knots
08:26 Flaps:3 at 151 Knots
08:27 Flaps:2 at 171 Knots
08:27 Flaps:0 at 193 Knots
08:41 Wind:330º@030 Knots Heading: 105º Ground Speed: 473 Knots Altitude 28090 ft
08:45 TOC
08:45 Fuel Weight: 36973 Lb
08:56 Wind:339º@043 Knots Heading: 106º Ground Speed: 476 Knots Altitude 33047 ft
09:11 Wind:328º@028 Knots Heading: 086º Ground Speed: 463 Knots Altitude 33080 ft
09:26 Wind:218º@025 Knots Heading: 106º Ground Speed: 459 Knots Altitude 33051 ft
09:41 Wind:215º@026 Knots Heading: 108º Ground Speed: 458 Knots Altitude 33034 ft
09:42 TOD
09:42 Fuel Weight: 31838 Lb
09:51 Flaps:1 at 290 Knots
09:51 Flaps:0 at 288 Knots
09:56 Wind:225º@023 Knots Heading: 147º Ground Speed: 258 Knots Altitude 10524 ft
09:56 Flaps:1 at 221 Knots
09:57 Flaps:0 at 231 Knots
09:57 Flaps:1 at 212 Knots
10:01 Flaps:3 at 174 Knots
10:01 Gear Down: 173 Knots
10:02 Flaps:4 at 166 Knots
10:02 Flaps:5 at 166 Knots
10:05 TouchDown:Rate -149 ft/min Speed: 146 Knots
10:05 VATSIM:LMML 060845Z 36008KT 330V040 9999 FEW025 25/17 Q1014 NOSIG
10:05 Land
10:05 Wind:350º@008 Knots
10:05 Heading: 314º
10:05 Flight Duration: 01:39
10:05 Landing Weight: 155089 Lbs
10:05 POS N35º 50´ 38´´ E014º 29´ 37´´
10:07 Parking brakes on
10:07 Block to Block Duration: 01:48
10:07 Final Fuel: 30531 Lbls
10:07 Spent Fuel: 11492 Lbls
10:07 Flight Length: 683 NM
10:07 TOD Land Length: 113 NM

Exportar CSV

Powered by Drupal - Modified by Danger4k